createdAt,value
2018-07-11T00:00:38.658Z,13.90
2018-07-11T00:03:07.108Z,13.90
2018-07-11T00:05:35.422Z,13.80
2018-07-11T00:08:03.933Z,13.70
2018-07-11T00:13:00.220Z,13.70
2018-07-11T00:15:28.520Z,13.60
2018-07-11T00:17:56.810Z,13.60
2018-07-11T00:20:25.114Z,13.70
2018-07-11T00:22:54.219Z,13.70
2018-07-11T00:25:22.497Z,13.60
2018-07-11T00:27:50.778Z,13.60
2018-07-11T00:30:19.121Z,13.50
2018-07-11T00:32:47.412Z,13.50
2018-07-11T00:35:15.750Z,13.50
2018-07-11T00:37:44.096Z,13.50
2018-07-11T00:40:12.435Z,13.40
2018-07-11T00:42:40.749Z,13.40
2018-07-11T00:45:09.053Z,13.40
2018-07-11T00:47:37.369Z,13.40
2018-07-11T00:50:05.667Z,13.40
2018-07-11T00:52:34.017Z,13.40
2018-07-11T00:55:02.334Z,13.30
2018-07-11T00:57:30.618Z,13.30
2018-07-11T00:59:59.481Z,13.30
2018-07-11T01:02:27.779Z,13.30
2018-07-11T01:04:56.104Z,13.30
2018-07-11T01:07:24.439Z,13.30
2018-07-11T01:17:22.422Z,13.20
2018-07-11T01:19:51.365Z,13.20
2018-07-11T01:22:19.642Z,13.10
2018-07-11T01:24:47.915Z,13.10
2018-07-11T01:27:16.245Z,13.10
2018-07-11T01:29:44.539Z,13.00
2018-07-11T01:32:12.866Z,13.10
2018-07-11T01:34:41.162Z,13.10
2018-07-11T01:37:09.449Z,13.10
2018-07-11T01:39:37.745Z,13.00
2018-07-11T01:42:06.067Z,13.00
2018-07-11T01:44:34.346Z,13.00
2018-07-11T01:47:02.674Z,13.00
2018-07-11T01:49:31.102Z,13.10
2018-07-11T01:52:10.799Z,13.00
2018-07-11T01:54:39.119Z,12.90
2018-07-11T01:57:07.422Z,12.90
2018-07-11T01:59:37.057Z,12.90
2018-07-11T02:02:05.514Z,12.90
2018-07-11T02:04:35.819Z,12.90
2018-07-11T02:07:04.231Z,12.90
2018-07-11T02:09:32.565Z,13.00
2018-07-11T02:12:00.960Z,12.90
2018-07-11T02:14:29.288Z,12.90
2018-07-11T02:16:57.794Z,12.90
2018-07-11T02:19:26.095Z,12.80
2018-07-11T02:21:54.413Z,12.90
2018-07-11T02:24:24.094Z,12.90
2018-07-11T02:26:52.656Z,12.80
2018-07-11T02:29:21.125Z,12.80
2018-07-11T02:31:49.498Z,12.80
2018-07-11T02:34:21.965Z,12.80
2018-07-11T02:39:18.392Z,12.70
2018-07-11T02:41:46.696Z,12.60
2018-07-11T02:44:15.058Z,12.70
2018-07-11T02:46:48.650Z,12.60
2018-07-11T02:49:16.974Z,12.70
2018-07-11T02:51:45.274Z,12.70
2018-07-11T02:54:13.600Z,12.60
2018-07-11T02:56:41.898Z,12.60
2018-07-11T02:59:10.193Z,12.60
2018-07-11T03:01:38.489Z,12.60
2018-07-11T03:04:06.850Z,12.60
2018-07-11T03:06:35.138Z,12.60
2018-07-11T03:09:03.983Z,12.60
2018-07-11T03:11:32.325Z,12.50
2018-07-11T03:14:00.613Z,12.50
2018-07-11T03:16:28.937Z,12.50
2018-07-11T03:18:57.405Z,12.50
2018-07-11T03:21:25.693Z,12.50
2018-07-11T03:23:53.969Z,12.50
2018-07-11T03:26:22.321Z,12.40
2018-07-11T03:28:50.605Z,12.40
2018-07-11T03:31:18.901Z,12.40
2018-07-11T03:33:47.240Z,12.30
2018-07-11T03:36:15.830Z,12.20
2018-07-11T03:38:44.148Z,12.20
2018-07-11T03:43:40.533Z,12.10
2018-07-11T03:46:08.838Z,12.10
2018-07-11T03:48:37.141Z,12.20
2018-07-11T03:51:05.609Z,12.20
2018-07-11T03:53:33.901Z,12.20
2018-07-11T03:56:02.198Z,12.20
2018-07-11T03:58:30.486Z,12.20
2018-07-11T04:00:58.771Z,12.20
2018-07-11T04:03:27.088Z,12.20
2018-07-11T04:05:55.433Z,12.20
2018-07-11T04:08:23.713Z,12.30
2018-07-11T04:10:52.021Z,12.20
2018-07-11T04:13:20.297Z,12.30
2018-07-11T04:15:48.566Z,12.30
2018-07-11T04:18:24.491Z,12.30
2018-07-11T04:20:52.781Z,12.20
2018-07-11T04:23:21.065Z,12.20
2018-07-11T04:25:49.409Z,12.20
2018-07-11T04:28:17.801Z,12.20
2018-07-11T04:30:46.101Z,12.30
2018-07-11T04:33:14.421Z,12.30
2018-07-11T04:35:42.745Z,12.40
2018-07-11T04:38:11.046Z,12.50
2018-07-11T04:40:39.642Z,12.50
2018-07-11T04:43:08.106Z,12.60
2018-07-11T04:45:36.710Z,12.60
2018-07-11T04:48:06.457Z,12.60
2018-07-11T04:50:35.618Z,12.60
2018-07-11T04:53:06.779Z,12.70
2018-07-11T04:55:35.342Z,12.70
2018-07-11T04:58:03.813Z,12.80
2018-07-11T05:00:32.442Z,12.80
2018-07-11T05:03:00.730Z,12.90
2018-07-11T05:05:28.997Z,12.90
2018-07-11T05:07:57.474Z,13.10
2018-07-11T05:10:25.761Z,13.20
2018-07-11T05:12:54.065Z,13.40
2018-07-11T05:15:22.349Z,13.40
2018-07-11T05:17:50.630Z,13.50
2018-07-11T05:20:18.969Z,13.60
2018-07-11T05:22:47.263Z,13.70
2018-07-11T05:25:15.565Z,13.80
2018-07-11T05:27:43.877Z,13.90
2018-07-11T05:30:12.159Z,14.10
2018-07-11T05:32:40.437Z,14.20
2018-07-11T05:35:08.701Z,14.20
2018-07-11T05:37:37.005Z,14.40
2018-07-11T05:40:05.377Z,14.50
2018-07-11T05:42:33.706Z,14.70
2018-07-11T05:45:01.986Z,14.80
2018-07-11T05:47:30.263Z,14.90
2018-07-11T05:49:58.662Z,15.00
2018-07-11T05:52:26.967Z,15.20
2018-07-11T05:54:55.279Z,15.70
2018-07-11T05:57:23.589Z,15.90
2018-07-11T05:59:52.009Z,16.70
2018-07-11T06:02:20.252Z,17.00
2018-07-11T06:04:48.542Z,17.20
2018-07-11T06:07:16.882Z,17.50
2018-07-11T06:09:45.290Z,17.80
2018-07-11T06:12:13.661Z,18.20
2018-07-11T06:14:42.066Z,18.80
2018-07-11T06:17:10.432Z,19.00
2018-07-11T06:19:38.716Z,19.30
2018-07-11T06:22:07.031Z,19.50
2018-07-11T06:24:35.336Z,19.30
2018-07-11T06:27:03.637Z,19.00
2018-07-11T06:29:31.975Z,19.00
2018-07-11T06:32:00.234Z,18.90
2018-07-11T06:34:28.541Z,18.80
2018-07-11T06:36:56.873Z,18.60
2018-07-11T06:39:25.246Z,18.60
2018-07-11T06:41:53.510Z,18.60
2018-07-11T06:44:21.841Z,18.70
2018-07-11T06:46:50.147Z,18.90
2018-07-11T06:49:18.458Z,19.00
2018-07-11T06:51:46.814Z,19.10
2018-07-11T06:54:15.238Z,19.20
2018-07-11T06:56:43.519Z,19.30
2018-07-11T06:59:11.828Z,19.40
2018-07-11T07:01:40.101Z,19.60
2018-07-11T07:04:08.377Z,19.70
2018-07-11T07:06:36.654Z,19.90
2018-07-11T07:09:05.898Z,20.00
2018-07-11T07:11:34.258Z,20.20
2018-07-11T07:14:02.569Z,20.30
2018-07-11T07:16:30.925Z,20.30
2018-07-11T07:18:59.193Z,20.40
2018-07-11T07:21:27.489Z,20.60
2018-07-11T07:26:23.810Z,20.80
2018-07-11T07:28:52.189Z,20.70
2018-07-11T07:31:20.464Z,20.80
2018-07-11T07:33:48.753Z,20.80
2018-07-11T07:36:17.211Z,20.80
2018-07-11T07:38:45.514Z,21.00
2018-07-11T07:41:13.822Z,21.20
2018-07-11T07:43:43.433Z,21.40
2018-07-11T07:46:11.778Z,21.50
2018-07-11T07:48:40.099Z,21.60
2018-07-11T07:51:08.478Z,21.80
2018-07-11T07:53:37.697Z,21.80
2018-07-11T07:56:06.389Z,22.10
2018-07-11T07:58:34.677Z,22.20
2018-07-11T08:01:03.089Z,22.00
2018-07-11T08:03:34.005Z,21.90
2018-07-11T08:06:02.322Z,21.70
2018-07-11T08:10:58.641Z,21.20
2018-07-11T08:13:27.006Z,21.40
2018-07-11T08:15:55.294Z,21.50
2018-07-11T08:18:23.789Z,21.60
2018-07-11T08:20:52.149Z,21.70
2018-07-11T08:23:32.519Z,21.50
2018-07-11T08:26:11.975Z,21.70
2018-07-11T08:29:11.081Z,21.70
2018-07-11T08:33:52.953Z,21.50
2018-07-11T08:39:36.560Z,21.40
2018-07-11T08:42:29.105Z,21.40
2018-07-11T08:45:10.973Z,21.50
2018-07-11T08:47:50.733Z,21.30
2018-07-11T08:50:29.282Z,21.40
2018-07-11T08:53:42.905Z,21.50
2018-07-11T08:57:26.813Z,21.80
2018-07-11T09:02:09.805Z,22.80
2018-07-11T09:04:59.665Z,23.00
2018-07-11T09:07:44.957Z,22.30
2018-07-11T09:12:25.813Z,22.10
2018-07-11T09:15:07.162Z,22.40
2018-07-11T09:17:55.905Z,22.40
2018-07-11T09:20:38.113Z,22.60
2018-07-11T09:24:22.950Z,22.30
2018-07-11T09:26:51.217Z,22.30
2018-07-11T09:29:19.497Z,22.60
2018-07-11T09:31:47.817Z,22.70
2018-07-11T09:34:18.333Z,23.30
2018-07-11T09:36:46.661Z,22.80
2018-07-11T09:39:14.945Z,22.70
2018-07-11T09:44:11.269Z,22.10
2018-07-11T09:46:39.578Z,22.20
2018-07-11T09:49:08.369Z,22.20
2018-07-11T09:51:36.690Z,21.90
2018-07-11T09:54:05.045Z,21.70
2018-07-11T09:56:33.385Z,21.60
2018-07-11T09:59:01.738Z,21.40
2018-07-11T10:01:30.046Z,21.40
2018-07-11T10:03:59.134Z,21.40
2018-07-11T10:06:28.525Z,21.60
2018-07-11T10:08:58.185Z,21.80
2018-07-11T10:11:26.801Z,21.80
2018-07-11T10:13:55.114Z,21.90
2018-07-11T10:16:24.010Z,22.10
2018-07-11T10:18:57.704Z,22.20
2018-07-11T10:21:26.422Z,22.20
2018-07-11T10:23:55.077Z,22.30
2018-07-11T10:26:24.101Z,22.20
2018-07-11T10:28:52.965Z,22.40
2018-07-11T10:31:21.366Z,22.60
2018-07-11T10:33:49.658Z,22.60
2018-07-11T10:36:18.029Z,22.70
2018-07-11T10:38:46.362Z,22.70
2018-07-11T10:41:14.990Z,23.00
2018-07-11T10:43:43.438Z,22.90
2018-07-11T10:46:11.711Z,23.30
2018-07-11T10:48:39.993Z,23.50
2018-07-11T10:51:09.380Z,23.80
2018-07-11T10:53:37.674Z,24.80
2018-07-11T10:56:06.112Z,24.70
2018-07-11T10:58:34.798Z,24.50
2018-07-11T11:01:05.699Z,25.00
2018-07-11T11:03:33.916Z,24.60
2018-07-11T11:06:02.272Z,24.20
2018-07-11T11:08:31.092Z,24.50
2018-07-11T11:10:59.369Z,24.90
2018-07-11T11:13:28.371Z,24.80
2018-07-11T11:15:57.036Z,24.60
2018-07-11T11:18:25.881Z,24.20
2018-07-11T11:20:55.293Z,23.90
2018-07-11T11:23:23.729Z,23.50
2018-07-11T11:25:52.210Z,23.30
2018-07-11T11:28:21.159Z,23.40
2018-07-11T11:33:17.603Z,23.80
2018-07-11T11:38:13.974Z,24.50
2018-07-11T11:40:42.302Z,25.00
2018-07-11T11:43:11.326Z,24.90
2018-07-11T11:45:39.728Z,24.80
2018-07-11T11:48:08.075Z,24.90
2018-07-11T11:50:36.421Z,25.60
2018-07-11T11:53:05.540Z,25.60
2018-07-11T11:55:33.974Z,25.30
2018-07-11T11:58:03.389Z,25.00
2018-07-11T12:00:31.817Z,24.90
2018-07-11T12:03:00.136Z,25.10
2018-07-11T12:05:28.473Z,25.30
2018-07-11T12:07:56.778Z,25.80
2018-07-11T12:10:25.466Z,26.60
2018-07-11T12:12:53.778Z,26.40
2018-07-11T12:15:22.081Z,26.00
2018-07-11T12:17:50.614Z,25.30
2018-07-11T12:20:20.059Z,25.30
2018-07-11T12:22:48.386Z,24.90
2018-07-11T12:25:16.685Z,24.40
2018-07-11T12:27:45.159Z,23.90
2018-07-11T12:30:13.617Z,23.70
2018-07-11T12:33:01.773Z,24.00
2018-07-11T12:35:30.466Z,23.90
2018-07-11T12:37:58.792Z,23.80
2018-07-11T12:40:27.089Z,23.70
2018-07-11T12:42:55.414Z,23.70
2018-07-11T12:45:23.750Z,23.50
2018-07-11T12:47:57.367Z,23.50
2018-07-11T12:50:25.666Z,23.20
2018-07-11T12:52:54.083Z,23.00
2018-07-11T12:55:22.412Z,22.90
2018-07-11T12:57:50.790Z,22.70
2018-07-11T13:00:19.298Z,22.20
2018-07-11T13:02:47.944Z,22.10
2018-07-11T13:05:16.440Z,22.10
2018-07-11T13:07:44.858Z,21.90
2018-07-11T13:10:13.257Z,21.70
2018-07-11T13:12:41.586Z,21.70
2018-07-11T13:15:09.898Z,21.90
2018-07-11T13:17:38.251Z,22.20
2018-07-11T13:20:06.666Z,22.40
2018-07-11T13:22:35.133Z,22.90
2018-07-11T13:25:03.534Z,23.30
2018-07-11T13:27:32.039Z,23.10
2018-07-11T13:30:00.331Z,23.10
2018-07-11T13:32:30.745Z,23.20
2018-07-11T13:34:59.101Z,23.50
2018-07-11T13:37:28.318Z,23.70
2018-07-11T13:39:59.528Z,23.70
2018-07-11T13:42:27.906Z,23.90
2018-07-11T13:44:56.203Z,23.90
2018-07-11T13:47:26.553Z,24.20
2018-07-11T13:49:55.097Z,24.50
2018-07-11T13:52:23.676Z,24.90
2018-07-11T13:54:52.643Z,25.10
2018-07-11T13:57:22.195Z,25.00
2018-07-11T13:59:50.988Z,25.20
2018-07-11T14:02:20.137Z,25.40
2018-07-11T14:04:48.764Z,25.70
2018-07-11T14:07:17.229Z,25.20
2018-07-11T14:09:45.569Z,24.90
2018-07-11T14:12:14.432Z,24.60
2018-07-11T14:14:42.789Z,24.60
2018-07-11T14:17:11.119Z,25.20
2018-07-11T14:19:39.477Z,25.50
2018-07-11T14:22:08.179Z,25.80
2018-07-11T14:24:37.881Z,26.30
2018-07-11T14:27:06.173Z,26.10
2018-07-11T14:29:34.632Z,26.20
2018-07-11T14:32:02.970Z,26.60
2018-07-11T14:34:31.285Z,26.70
2018-07-11T14:36:59.569Z,25.70
2018-07-11T14:39:27.867Z,25.40
2018-07-11T14:41:56.164Z,25.80
2018-07-11T14:44:24.569Z,27.10
2018-07-11T14:46:52.913Z,27.30
2018-07-11T14:49:21.657Z,26.40
2018-07-11T14:51:49.975Z,25.70
2018-07-11T14:54:18.293Z,25.20
2018-07-11T14:56:47.835Z,24.90
2018-07-11T14:59:16.592Z,24.60
2018-07-11T15:01:46.382Z,24.70
2018-07-11T15:04:15.129Z,24.40
2018-07-11T15:06:43.589Z,24.70
2018-07-11T15:09:12.571Z,24.90
2018-07-11T15:11:40.690Z,25.10
2018-07-11T15:14:09.334Z,24.70
2018-07-11T15:16:37.629Z,24.90
2018-07-11T15:19:06.065Z,24.70
2018-07-11T15:21:34.388Z,24.70
2018-07-11T15:24:03.417Z,24.40
2018-07-11T15:26:31.781Z,24.50
2018-07-11T15:29:00.051Z,24.20
2018-07-11T15:31:28.383Z,24.30
2018-07-11T15:33:56.663Z,24.20
2018-07-11T15:36:25.075Z,24.10
2018-07-11T15:38:53.426Z,24.20
2018-07-11T15:41:21.758Z,24.30
2018-07-11T15:43:50.291Z,24.40
2018-07-11T15:46:19.081Z,24.50
2018-07-11T15:48:48.125Z,24.50
2018-07-11T15:51:16.878Z,24.50
2018-07-11T15:53:45.218Z,24.80
2018-07-11T15:56:13.959Z,25.00
2018-07-11T15:58:44.570Z,24.90
2018-07-11T16:01:12.547Z,25.00
2018-07-11T16:03:43.781Z,25.10
2018-07-11T16:06:12.081Z,24.90
2018-07-11T16:08:45.851Z,25.00
2018-07-11T16:11:14.130Z,24.70
2018-07-11T16:13:42.521Z,24.60
2018-07-11T16:16:10.851Z,24.50
2018-07-11T16:18:39.133Z,24.40
2018-07-11T16:21:07.428Z,24.50
2018-07-11T16:23:35.734Z,24.40
2018-07-11T16:26:04.030Z,24.50
2018-07-11T16:28:32.785Z,24.50
2018-07-11T16:33:29.151Z,24.40
2018-07-11T16:35:57.436Z,24.30
2018-07-11T16:38:25.734Z,24.40
2018-07-11T16:40:54.664Z,24.40
2018-07-11T16:43:22.970Z,24.60
2018-07-11T16:45:52.312Z,24.70
2018-07-11T16:48:21.114Z,24.70
2018-07-11T16:50:49.401Z,24.70
2018-07-11T16:53:18.265Z,24.30
2018-07-11T16:55:46.586Z,24.20
2018-07-11T16:58:18.521Z,23.90
2018-07-11T17:00:50.313Z,23.70
2018-07-11T17:03:18.605Z,23.50
2018-07-11T17:05:50.301Z,23.40
2018-07-11T17:08:36.442Z,23.40
2018-07-11T17:11:14.741Z,23.30
2018-07-11T17:13:46.905Z,23.30
2018-07-11T17:16:15.258Z,23.40
2018-07-11T17:18:45.727Z,23.50
2018-07-11T17:21:20.974Z,23.40
2018-07-11T17:23:53.129Z,23.40
2018-07-11T17:26:24.997Z,23.40
2018-07-11T17:28:54.219Z,23.30
2018-07-11T17:31:22.516Z,23.30
2018-07-11T17:33:50.849Z,23.30
2018-07-11T17:36:19.586Z,23.10
2018-07-11T17:38:47.877Z,23.10
2018-07-11T17:41:16.210Z,23.10
2018-07-11T17:43:48.157Z,23.10
2018-07-11T17:46:20.195Z,23.10
2018-07-11T17:50:59.068Z,23.00
2018-07-11T17:53:28.286Z,22.90
2018-07-11T17:56:12.257Z,22.80
2018-07-11T17:58:56.879Z,22.80
2018-07-11T18:01:44.245Z,22.70
2018-07-11T18:04:16.604Z,22.60
2018-07-11T18:07:20.546Z,22.60
2018-07-11T18:10:01.558Z,22.60
2018-07-11T18:12:42.154Z,22.50
2018-07-11T18:15:55.050Z,22.60
2018-07-11T18:19:03.889Z,22.50
2018-07-11T18:21:45.142Z,22.60
2018-07-11T18:26:28.298Z,22.70
2018-07-11T18:32:54.724Z,22.60
2018-07-11T18:35:35.042Z,22.50
2018-07-11T18:39:11.934Z,22.40
2018-07-11T18:42:00.086Z,22.50
2018-07-11T18:50:06.068Z,22.40
2018-07-11T18:52:43.751Z,22.30
2018-07-11T18:55:19.610Z,22.20
2018-07-11T18:57:55.004Z,22.00
2018-07-11T19:00:34.841Z,22.00
2018-07-11T19:03:11.562Z,21.90
2018-07-11T19:07:50.010Z,21.80
2018-07-11T19:12:37.030Z,21.70
2018-07-11T19:15:11.554Z,21.60
2018-07-11T19:17:46.914Z,21.30
2018-07-11T19:20:26.844Z,21.20
2018-07-11T19:23:27.110Z,21.10
2018-07-11T19:26:01.525Z,21.10
2018-07-11T19:28:39.050Z,21.10
2018-07-11T19:31:21.577Z,21.00
2018-07-11T19:33:58.974Z,20.90
2018-07-11T19:36:37.438Z,20.90
2018-07-11T19:39:13.885Z,20.90
2018-07-11T19:41:55.140Z,20.90
2018-07-11T19:45:33.590Z,20.70
2018-07-11T19:48:09.976Z,20.60
2018-07-11T19:52:49.565Z,20.50
2018-07-11T19:57:25.149Z,20.40
2018-07-11T19:59:53.609Z,20.30
2018-07-11T20:02:21.915Z,20.20
2018-07-11T20:04:50.754Z,20.10
2018-07-11T20:07:19.790Z,20.00
2018-07-11T20:09:48.193Z,20.10
2018-07-11T20:12:17.970Z,20.00
2018-07-11T20:14:46.649Z,20.00
2018-07-11T20:17:15.054Z,19.90
2018-07-11T20:19:43.687Z,19.80
2018-07-11T20:22:12.012Z,19.80
2018-07-11T20:24:40.915Z,19.70
2018-07-11T20:27:09.345Z,19.70
2018-07-11T20:29:37.812Z,19.60
2018-07-11T20:32:09.636Z,19.60
2018-07-11T20:34:41.070Z,19.60
2018-07-11T20:39:42.780Z,19.60
2018-07-11T20:42:13.344Z,19.40
2018-07-11T20:44:42.437Z,19.40
2018-07-11T20:47:10.754Z,19.50
2018-07-11T20:49:39.249Z,19.50
2018-07-11T20:52:07.597Z,19.40
2018-07-11T20:54:39.441Z,19.40
2018-07-11T20:57:07.750Z,19.40
2018-07-11T20:59:47.290Z,19.40
2018-07-11T21:02:26.758Z,19.30
2018-07-11T21:05:03.333Z,19.30
2018-07-11T21:07:48.182Z,19.30
2018-07-11T21:10:28.159Z,19.30
2018-07-11T21:13:07.908Z,19.40
2018-07-11T21:18:00.933Z,19.30
2018-07-11T21:20:29.276Z,19.30
2018-07-11T21:22:57.603Z,19.30
2018-07-11T21:25:25.869Z,19.30
2018-07-11T21:27:54.149Z,19.30
2018-07-11T21:30:22.426Z,19.30
2018-07-11T21:32:51.309Z,19.20
2018-07-11T21:35:19.642Z,19.30
2018-07-11T21:37:47.961Z,19.20
2018-07-11T21:40:16.292Z,19.10
2018-07-11T21:42:44.574Z,19.10
2018-07-11T21:45:12.865Z,19.10
2018-07-11T21:47:41.209Z,19.20
2018-07-11T21:50:09.494Z,19.10
2018-07-11T21:52:37.834Z,19.00
2018-07-11T21:55:06.193Z,18.90
2018-07-11T21:57:34.514Z,18.80
2018-07-11T22:00:03.025Z,18.80
2018-07-11T22:02:31.354Z,18.80
2018-07-11T22:04:59.694Z,18.70
2018-07-11T22:07:27.985Z,18.60
2018-07-11T22:09:56.302Z,18.60
2018-07-11T22:12:24.593Z,18.60
2018-07-11T22:19:58.258Z,18.40
2018-07-11T22:22:25.530Z,18.40
2018-07-11T22:24:52.849Z,18.50
2018-07-11T22:27:20.198Z,18.40
2018-07-11T22:29:47.494Z,18.40
2018-07-11T22:32:14.774Z,18.40
2018-07-11T22:34:44.645Z,18.30
2018-07-11T22:37:11.921Z,18.40
2018-07-11T22:39:39.221Z,18.40
2018-07-11T22:44:34.042Z,18.30
2018-07-11T22:47:01.334Z,18.40
2018-07-11T22:49:28.633Z,18.40
2018-07-11T22:51:55.934Z,18.40
2018-07-11T22:54:23.272Z,18.40
2018-07-11T22:56:50.554Z,18.30
2018-07-11T22:59:17.847Z,18.20
2018-07-11T23:01:45.154Z,18.20
2018-07-11T23:04:12.468Z,18.00
2018-07-11T23:06:39.757Z,17.80
2018-07-11T23:09:07.062Z,17.70
2018-07-11T23:11:34.333Z,17.70
2018-07-11T23:14:01.634Z,17.60
2018-07-11T23:16:29.217Z,17.60
2018-07-11T23:18:57.137Z,17.50
2018-07-11T23:21:24.488Z,17.50
2018-07-11T23:23:51.774Z,17.50
2018-07-11T23:26:20.022Z,17.50
2018-07-11T23:28:47.317Z,17.40
2018-07-11T23:31:14.601Z,17.30
2018-07-11T23:36:09.795Z,17.20
2018-07-11T23:38:37.156Z,17.20
2018-07-11T23:41:04.469Z,17.10
2018-07-11T23:43:31.830Z,17.00
2018-07-11T23:45:59.151Z,16.90
2018-07-11T23:48:26.514Z,16.90
2018-07-11T23:53:21.366Z,16.80
2018-07-11T23:55:48.638Z,16.80
2018-07-11T23:58:15.933Z,16.80
